Leviticus — WDC2712 — position and weather

sailwx.info

Track history (hours):
 
Tides and Currents Weather Stations Pressure Air Temp Water Temp Dewpoint Dewpoint Depression Visibility Wind Speed Wind Dir Waves Ship Positions

Leviticus

Owner: Kirby Inland Marine, LP, Houston, TX. More information available from US FCC via Universal Licensing System and Coast Guard Vessel Documentation Center.

Last reported at 2018-Aug-09 11:40 UTC. Time now 2018-Aug-14 15:19 UTC.
Position N 32°45' W 091°09'.

Length 411 m; draft 2.7 m.

Type: . MMSI: 366996690.

Date/timePositionNaut miles runAvg speedWind from/ knotsBaromVisibWave heightAir tempDewpointWater temp
2018-Aug-09 11:40N 32°45' W 091°09'4 5.0
2018-Aug-09 10:51N 32°44' W 091°04'7 1.7
2018-Aug-09 06:34N 32°38' W 091°09'0 5.2
2018-Aug-09 06:30N 32°38' W 091°09'3 5.9
2018-Aug-09 06:00N 32°35' W 091°08'3 5.6
2018-Aug-09 05:30N 32°33' W 091°06'3 6.1
2018-Aug-09 04:59N 32°30' W 091°07'3 5.9
2018-Aug-09 04:30N 32°27' W 091°05'3 6.1
2018-Aug-09 04:00N 32°26' W 091°02'3 5.4
2018-Aug-09 03:30N 32°25' W 090°60'3 5.0
2018-Aug-09 03:00N 32°22' W 091°00'3 5.2
2018-Aug-09 02:30N 32°21' W 090°58'1 1.3
2018-Aug-09 02:00N 32°21' W 090°57'1 2.3
2018-Aug-09 01:30N 32°21' W 090°55'2 3.4
2018-Aug-09 01:00N 32°20' W 090°54'3 5.4
2018-Aug-09 00:30N 32°18' W 090°56'3 5.6
2018-Aug-09 00:00N 32°16' W 090°58'3 5.4
2018-Aug-08 23:30N 32°13' W 090°59'3 5.7
2018-Aug-08 23:00N 32°10' W 090°60'3 5.3
2018-Aug-08 22:30N 32°08' W 091°01'4 5.2
2018-Aug-08 21:39N 32°08' W 091°06'1 5.3
2018-Aug-08 21:30N 32°07' W 091°07'6 5.3
2018-Aug-08 20:27N 32°02' W 091°04'  
Track history (hours):
 
Tides and Currents Weather Stations Pressure Air Temp Water Temp Dewpoint Dewpoint Depression Visibility Wind Speed Wind Dir Waves Ship Positions

Leviticus

Owner: Kirby Inland Marine, LP, Houston, TX. More information available from US FCC via Universal Licensing System and Coast Guard Vessel Documentation Center.

Last reported at 2018-Aug-09 11:40 UTC. Time now 2018-Aug-14 15:19 UTC.
Position N 32°45' W 091°09'.

Length 411 m; draft 2.7 m.

Type: . MMSI: 366996690.

Date/timePositionNaut miles runAvg speedWind from/ knotsBaromVisibWave heightAir tempDewpointWater temp
2018-Aug-09 11:40N 32°45' W 091°09'4 5.0
2018-Aug-09 10:51N 32°44' W 091°04'7 1.7
2018-Aug-09 06:34N 32°38' W 091°09'0 5.2
2018-Aug-09 06:30N 32°38' W 091°09'3 5.9
2018-Aug-09 06:00N 32°35' W 091°08'3 5.6
2018-Aug-09 05:30N 32°33' W 091°06'3 6.1
2018-Aug-09 04:59N 32°30' W 091°07'3 5.9
2018-Aug-09 04:30N 32°27' W 091°05'3 6.1
2018-Aug-09 04:00N 32°26' W 091°02'3 5.4
2018-Aug-09 03:30N 32°25' W 090°60'3 5.0
2018-Aug-09 03:00N 32°22' W 091°00'3 5.2
2018-Aug-09 02:30N 32°21' W 090°58'1 1.3
2018-Aug-09 02:00N 32°21' W 090°57'1 2.3
2018-Aug-09 01:30N 32°21' W 090°55'2 3.4
2018-Aug-09 01:00N 32°20' W 090°54'3 5.4
2018-Aug-09 00:30N 32°18' W 090°56'3 5.6
2018-Aug-09 00:00N 32°16' W 090°58'3 5.4
2018-Aug-08 23:30N 32°13' W 090°59'3 5.7
2018-Aug-08 23:00N 32°10' W 090°60'3 5.3
2018-Aug-08 22:30N 32°08' W 091°01'4 5.2
2018-Aug-08 21:39N 32°08' W 091°06'1 5.3
2018-Aug-08 21:30N 32°07' W 091°07'6 5.3
2018-Aug-08 20:27N 32°02' W 091°04'  

Dump ship's entire track history